createdAt,value
2022-09-12T00:03:03.298Z,44.8
2022-09-12T00:08:21.793Z,45.3
2022-09-12T00:13:42.376Z,44.3
2022-09-12T00:19:00.585Z,45.5
2022-09-12T00:24:18.550Z,44.4
2022-09-12T00:29:37.011Z,44.1
2022-09-12T00:34:55.501Z,44
2022-09-12T00:40:13.915Z,44.8
2022-09-12T00:45:32.208Z,44.5
2022-09-12T00:50:50.668Z,44.4
2022-09-12T00:56:09.446Z,44.8
2022-09-12T01:01:33.532Z,43.9
2022-09-12T01:06:51.756Z,43.1
2022-09-12T01:12:10.546Z,44.5
2022-09-12T01:17:28.726Z,44.3
2022-09-12T01:22:46.936Z,43.1
2022-09-12T01:28:04.881Z,43.4
2022-09-12T01:33:23.060Z,43.8
2022-09-12T01:38:41.931Z,42.7
2022-09-12T01:44:00.185Z,43
2022-09-12T01:49:18.914Z,42.5
2022-09-12T01:54:37.673Z,43.9
2022-09-12T01:59:56.205Z,42.6
2022-09-12T02:05:14.949Z,43.4
2022-09-12T02:10:33.571Z,42.6
2022-09-12T02:15:52.381Z,42.2
2022-09-12T02:21:11.112Z,41.9
2022-09-12T02:26:29.872Z,42.7
2022-09-12T02:31:48.116Z,42.9
2022-09-12T02:37:06.574Z,42.7
2022-09-12T02:42:25.321Z,42.8
2022-09-12T02:47:44.106Z,41.6
2022-09-12T02:53:02.287Z,42.8
2022-09-12T02:58:20.219Z,42.5
2022-09-12T03:03:22.817Z,42.4
2022-09-12T03:08:41.248Z,41.6
2022-09-12T03:13:59.442Z,41.9
2022-09-12T03:19:17.957Z,41.1
2022-09-12T03:24:35.856Z,42
2022-09-12T03:29:54.327Z,42.3
2022-09-12T03:35:12.901Z,42.5
2022-09-12T03:40:31.631Z,42
2022-09-12T03:45:50.139Z,40.9
2022-09-12T03:51:08.154Z,42.1
2022-09-12T03:56:26.885Z,41.4
2022-09-12T04:01:45.373Z,41.1
2022-09-12T04:07:03.327Z,41.8
2022-09-12T04:12:22.070Z,42
2022-09-12T04:17:40.543Z,41.6
2022-09-12T04:22:59.055Z,41.3
2022-09-12T04:28:17.285Z,41.5
2022-09-12T04:33:35.775Z,41.1
2022-09-12T04:38:54.581Z,41.6
2022-09-12T04:44:13.312Z,40.7
2022-09-12T04:49:32.074Z,40.4
2022-09-12T04:54:50.878Z,39.6
2022-09-12T05:00:08.786Z,39.7
2022-09-12T05:05:26.712Z,40.8
2022-09-12T05:10:45.240Z,41.3
2022-09-12T05:16:03.981Z,39.6
2022-09-12T05:21:22.462Z,40
2022-09-12T05:26:40.686Z,40.3
2022-09-12T05:31:58.868Z,39.8
2022-09-12T05:37:17.614Z,40.4
2022-09-12T05:42:35.850Z,39.7
2022-09-12T05:47:54.061Z,40.1
2022-09-12T05:53:12.552Z,39.9
2022-09-12T05:58:31.344Z,40
2022-09-12T06:03:50.075Z,40
2022-09-12T06:09:09.223Z,40
2022-09-12T06:14:27.731Z,39.9
2022-09-12T06:19:46.189Z,40.9
2022-09-12T06:25:04.668Z,40.9
2022-09-12T06:30:26.379Z,41.2
2022-09-12T06:35:44.829Z,40.7
2022-09-12T06:41:02.736Z,40.4
2022-09-12T06:46:21.593Z,40.6
2022-09-12T06:51:40.124Z,40.8
2022-09-12T06:56:58.607Z,40.7
2022-09-12T07:02:16.769Z,41.4
2022-09-12T07:07:35.048Z,40.9
2022-09-12T07:12:53.533Z,41.3
2022-09-12T07:18:12.071Z,41.1
2022-09-12T07:23:30.513Z,41.1
2022-09-12T07:28:48.978Z,40.2
2022-09-12T07:34:07.268Z,40.3
2022-09-12T07:39:25.711Z,40.3
2022-09-12T07:44:44.482Z,40.3
2022-09-12T07:50:03.282Z,40.8
2022-09-12T07:55:21.465Z,40.8
2022-09-12T08:00:39.964Z,40
2022-09-12T08:05:42.843Z,39.9
2022-09-12T08:11:01.312Z,39.3
2022-09-12T08:16:19.231Z,40.1
2022-09-12T08:21:37.457Z,40.1
2022-09-12T08:26:55.625Z,39.4
2022-09-12T08:32:14.114Z,39.3
2022-09-12T08:37:32.927Z,40.4
2022-09-12T08:42:51.389Z,40.1
2022-09-12T08:48:10.188Z,40.2
2022-09-12T08:53:28.395Z,40.1
2022-09-12T08:58:46.856Z,40
2022-09-12T09:04:05.332Z,39.7
2022-09-12T09:09:24.125Z,39.5
2022-09-12T09:14:42.866Z,40
2022-09-12T09:20:00.789Z,39.7
2022-09-12T09:25:23.716Z,39.8
2022-09-12T09:30:41.947Z,38.6
2022-09-12T09:36:00.413Z,38.7
2022-09-12T09:41:19.185Z,39.5
2022-09-12T09:46:37.925Z,38.7
2022-09-12T09:52:00.885Z,39.3
2022-09-12T09:57:19.101Z,38.8
2022-09-12T10:02:37.868Z,39
2022-09-12T10:07:56.326Z,39.2
2022-09-12T10:13:14.829Z,39
2022-09-12T10:18:32.991Z,39.1
2022-09-12T10:23:51.487Z,37.6
2022-09-12T10:29:09.989Z,38.8
2022-09-12T10:34:28.435Z,37.7
2022-09-12T10:39:46.787Z,38.3
2022-09-12T10:45:05.276Z,38.9
2022-09-12T10:50:24.114Z,38.7
2022-09-12T10:55:42.588Z,38.2
2022-09-12T11:01:01.290Z,37.2
2022-09-12T11:06:20.017Z,38.5
2022-09-12T11:11:38.775Z,38.5
2022-09-12T11:16:44.041Z,38.9
2022-09-12T11:22:02.760Z,39
2022-09-12T11:27:21.239Z,39.8
2022-09-12T11:32:39.737Z,39.9
2022-09-12T11:37:57.915Z,39.5
2022-09-12T11:43:16.435Z,39.4
2022-09-12T11:48:34.923Z,39.7
2022-09-12T11:53:53.102Z,40.2
2022-09-12T11:59:11.589Z,40.1
2022-09-12T12:04:30.100Z,40.1
2022-09-12T12:09:48.525Z,39.3
2022-09-12T12:15:06.715Z,40.2
2022-09-12T12:20:25.226Z,40.2
2022-09-12T12:25:43.667Z,39.7
2022-09-12T12:31:02.438Z,40.2
2022-09-12T12:36:20.730Z,39.5
2022-09-12T12:41:39.488Z,40.4
2022-09-12T12:46:58.254Z,40.6
2022-09-12T12:52:16.797Z,39.5
2022-09-12T12:57:35.526Z,39
2022-09-12T13:02:54.516Z,38.7
2022-09-12T13:08:12.994Z,40
2022-09-12T13:13:31.169Z,39.2
2022-09-12T13:18:49.919Z,39.2
2022-09-12T13:24:08.421Z,40.2
2022-09-12T13:29:26.886Z,39.4
2022-09-12T13:34:45.779Z,39.4
2022-09-12T13:40:04.625Z,40
2022-09-12T13:45:23.104Z,39.4
2022-09-12T13:50:41.435Z,40.2
2022-09-12T13:55:59.952Z,40.5
2022-09-12T14:01:18.436Z,38.3
2022-09-12T14:06:36.890Z,37.3
2022-09-12T14:11:55.118Z,37.7
2022-09-12T14:17:23.087Z,36.8
2022-09-12T14:22:41.977Z,37.1
2022-09-12T14:28:00.805Z,37.2
2022-09-12T14:33:19.277Z,36.9
2022-09-12T14:38:37.242Z,36.8
2022-09-12T14:43:56.042Z,37.4
2022-09-12T14:49:14.268Z,37.4
2022-09-12T14:54:33.042Z,37.4
2022-09-12T14:59:51.829Z,37.2
2022-09-12T15:05:10.299Z,37.1
2022-09-12T15:10:29.178Z,37.3
2022-09-12T15:15:47.547Z,37
2022-09-12T15:21:06.016Z,37.1
2022-09-12T15:26:24.772Z,38.1
2022-09-12T15:31:43.047Z,37.4
2022-09-12T15:37:01.962Z,37.2
2022-09-12T15:42:20.724Z,37.8
2022-09-12T15:47:38.959Z,38
2022-09-12T15:52:57.679Z,37.7
2022-09-12T15:58:15.602Z,37.9
2022-09-12T16:03:34.294Z,38
2022-09-12T16:08:53.022Z,38
2022-09-12T16:14:11.753Z,37.6
2022-09-12T16:19:14.709Z,37.9
2022-09-12T16:24:33.443Z,37.7
2022-09-12T16:29:51.915Z,38.4
2022-09-12T16:35:10.207Z,38.2
2022-09-12T16:40:28.567Z,38.8
2022-09-12T16:45:47.045Z,37.9
2022-09-12T16:51:05.744Z,37.6
2022-09-12T16:56:24.001Z,37.5
2022-09-12T17:01:42.626Z,37.9
2022-09-12T17:07:01.172Z,37.8
2022-09-12T17:12:19.346Z,38.1
2022-09-12T17:17:37.840Z,37.8
2022-09-12T17:22:56.776Z,38.5
2022-09-12T17:28:15.517Z,37.8
2022-09-12T17:33:34.268Z,38.1
2022-09-12T17:38:52.502Z,37.8
2022-09-12T17:44:11.235Z,37.6
2022-09-12T17:49:29.715Z,37.4
2022-09-12T17:54:48.304Z,37.5
2022-09-12T18:00:06.811Z,37.6
2022-09-12T18:05:24.714Z,37.9
2022-09-12T18:10:43.299Z,38.1
2022-09-12T18:16:02.086Z,38.5
2022-09-12T18:21:20.555Z,39.3
2022-09-12T18:26:39.147Z,39.6
2022-09-12T18:31:57.323Z,39.5
2022-09-12T18:37:16.075Z,40.2
2022-09-12T18:42:34.909Z,40.8
2022-09-12T18:47:53.103Z,40.2
2022-09-12T18:53:11.574Z,40.6
2022-09-12T18:58:30.595Z,40.3
2022-09-12T19:03:49.148Z,40.2
2022-09-12T19:09:08.677Z,41.1
2022-09-12T19:14:27.327Z,40.8
2022-09-12T19:19:45.570Z,40.4
2022-09-12T19:25:04.064Z,40.8
2022-09-12T19:30:22.358Z,40.7
2022-09-12T19:35:40.848Z,41
2022-09-12T19:40:59.337Z,40.3
2022-09-12T19:46:17.629Z,40.9
2022-09-12T19:51:36.046Z,40.3
2022-09-12T19:56:54.533Z,41.1
2022-09-12T20:02:13.659Z,41
2022-09-12T20:07:32.267Z,40.4
2022-09-12T20:12:51.020Z,40.7
2022-09-12T20:18:09.383Z,40.4
2022-09-12T20:23:27.544Z,39.8
2022-09-12T20:28:46.146Z,40.6
2022-09-12T20:34:04.661Z,40.3
2022-09-12T20:39:23.116Z,40.1
2022-09-12T20:44:41.601Z,40.8
2022-09-12T20:50:00.198Z,41.3
2022-09-12T20:55:18.659Z,40.5
2022-09-12T21:00:37.135Z,39.4
2022-09-12T21:05:55.776Z,39.2
2022-09-12T21:11:14.505Z,39.5
2022-09-12T21:16:33.130Z,38.3
2022-09-12T21:21:51.853Z,38.1
2022-09-12T21:27:10.313Z,38.1
2022-09-12T21:32:28.794Z,37.8
2022-09-12T21:37:47.570Z,37.3
2022-09-12T21:43:13.369Z,38.6
2022-09-12T21:48:31.939Z,39.2
2022-09-12T21:53:50.617Z,39.9
2022-09-12T21:59:09.064Z,39.6
2022-09-12T22:04:27.263Z,38.7
2022-09-12T22:09:46.053Z,38.6
2022-09-12T22:15:41.331Z,39.2
2022-09-12T22:20:59.449Z,39.8
2022-09-12T22:26:17.663Z,39.3
2022-09-12T22:31:35.893Z,39.7
2022-09-12T22:36:54.095Z,39.2
2022-09-12T22:42:12.040Z,39.8
2022-09-12T22:47:30.779Z,40.1
2022-09-12T22:52:49.260Z,40.1
2022-09-12T22:58:07.767Z,40.1
2022-09-12T23:03:26.475Z,39.7
2022-09-12T23:08:45.247Z,39.4
2022-09-12T23:14:03.879Z,38.9
2022-09-12T23:19:22.342Z,39
2022-09-12T23:24:41.095Z,38.8
2022-09-12T23:29:59.612Z,39.5
2022-09-12T23:35:18.068Z,38.6
2022-09-12T23:40:36.279Z,38.7
2022-09-12T23:45:55.154Z,38.5
2022-09-12T23:51:13.640Z,39.3
2022-09-12T23:56:32.123Z,38.5
